createdAt,value
2022-10-17T00:13:06.000Z,95.0
2022-10-17T00:43:08.000Z,95.0
2022-10-17T01:13:15.000Z,95.0
2022-10-17T01:43:17.000Z,95.0
2022-10-17T02:13:20.000Z,95.0
2022-10-17T02:43:21.000Z,95.0
2022-10-17T03:13:26.000Z,94.0
2022-10-17T03:43:27.000Z,95.0
2022-10-17T04:13:28.000Z,96.0
2022-10-17T04:43:29.000Z,95.0
2022-10-17T05:13:38.000Z,95.0
2022-10-17T05:43:42.000Z,95.0
2022-10-17T06:13:49.000Z,95.0
2022-10-17T06:44:00.000Z,96.0
2022-10-17T07:14:11.000Z,96.0
2022-10-17T07:44:22.000Z,96.0
2022-10-17T08:14:32.767Z,96
2022-10-17T08:44:33.000Z,97.0
2022-10-17T09:14:43.000Z,97.0
2022-10-17T09:44:45.000Z,96.0
2022-10-17T10:14:48.000Z,93.0
2022-10-17T10:44:52.000Z,92.0
2022-10-17T11:14:53.000Z,91.0
2022-10-17T11:44:54.000Z,74.0
2022-10-17T12:15:02.000Z,54.0
2022-10-17T12:45:05.000Z,56.0
2022-10-17T13:15:13.000Z,52.0
2022-10-17T13:45:22.000Z,68.0
2022-10-17T14:15:32.000Z,70.0
2022-10-17T14:45:34.000Z,73.0
2022-10-17T15:15:37.000Z,79.0
2022-10-17T15:45:46.000Z,82.0
2022-10-17T16:15:46.000Z,85.0
2022-10-17T16:45:54.000Z,87.0
2022-10-17T17:15:57.000Z,89.0
2022-10-17T17:45:57.980Z,90
2022-10-17T18:16:07.397Z,92
2022-10-17T18:46:10.000Z,92.0
2022-10-17T19:16:11.000Z,93.0
2022-10-17T19:46:15.302Z,94
2022-10-17T20:16:25.311Z,94
2022-10-17T20:46:27.469Z,95
2022-10-17T21:16:39.348Z,94
2022-10-17T21:46:40.000Z,95.0
2022-10-17T22:16:41.000Z,95.0
2022-10-17T22:46:51.000Z,95.0
2022-10-17T23:16:54.000Z,95.0
2022-10-17T23:47:03.000Z,95.0
